createdAt,value
2022-09-28T02:21:49.117Z,98478.56
2022-09-28T02:24:27.575Z,98477.56
2022-09-28T02:26:59.152Z,98474.09
2022-09-28T02:29:25.937Z,98477.09
2022-09-28T02:31:52.681Z,98471.44
2022-09-28T02:34:19.128Z,98468.63
2022-09-28T02:36:46.949Z,98469.28
2022-09-28T02:39:18.097Z,98468.50
2022-09-28T02:42:23.673Z,98467.38
2022-09-28T02:44:57.835Z,98475.75
2022-09-28T02:47:51.009Z,98462.56
2022-09-28T02:50:55.673Z,98468.50
2022-09-28T02:53:28.165Z,98465.53
2022-09-28T02:56:22.494Z,98459.59
2022-09-28T02:59:07.134Z,98463.13
2022-09-28T03:02:20.723Z,98456.91
2022-09-28T03:04:56.605Z,98452.38
2022-09-28T03:07:33.449Z,98444.81
2022-09-28T03:10:08.626Z,98454.00
2022-09-28T03:12:37.259Z,98448.09
2022-09-28T03:15:11.158Z,98444.88
2022-09-28T03:17:37.949Z,98440.59
2022-09-28T03:20:05.400Z,98442.78
2022-09-28T03:22:31.846Z,98441.16
2022-09-28T03:24:58.289Z,98437.94
2022-09-28T03:27:24.730Z,98441.69
2022-09-28T03:29:51.154Z,98433.09
2022-09-28T03:32:17.603Z,98427.19
2022-09-28T03:34:44.046Z,98426.66
2022-09-28T03:37:10.509Z,98426.66
2022-09-28T03:39:37.197Z,98422.91
2022-09-28T03:42:03.663Z,98425.75
2022-09-28T03:44:30.152Z,98433.09
2022-09-28T03:46:56.618Z,98425.03
2022-09-28T03:49:23.090Z,98431.50
2022-09-28T03:51:49.679Z,98428.28
2022-09-28T03:54:16.145Z,98421.28
2022-09-28T03:56:42.603Z,98419.41
2022-09-28T03:59:09.092Z,98420.72
2022-09-28T04:01:35.573Z,98414.56
2022-09-28T04:04:02.051Z,98411.59
2022-09-28T04:06:28.538Z,98424.75
2022-09-28T04:08:55.173Z,98412.38
2022-09-28T04:11:21.627Z,98415.63
2022-09-28T04:13:49.991Z,98412.66
2022-09-28T04:16:19.408Z,98404.56
2022-09-28T04:18:47.160Z,98402.44
2022-09-28T04:21:15.799Z,98405.06
2022-09-28T04:23:42.976Z,98397.53
2022-09-28T04:26:23.947Z,98395.00
2022-09-28T04:29:09.496Z,98400.06
2022-09-28T04:31:50.171Z,98388.06
2022-09-28T04:34:19.931Z,98393.94
2022-09-28T04:36:47.636Z,98391.38
2022-09-28T04:39:15.647Z,98392.06
2022-09-28T04:41:42.544Z,98393.56
2022-09-28T04:44:09.681Z,98390.75
2022-09-28T04:46:36.581Z,98387.38
2022-09-28T04:49:03.151Z,98384.78
2022-09-28T04:51:33.088Z,98377.06
2022-09-28T04:53:59.615Z,98379.41
2022-09-28T04:56:26.105Z,98388.66
2022-09-28T04:58:52.931Z,98375.97
2022-09-28T05:01:23.731Z,98381.06
2022-09-28T05:03:51.217Z,98386.97
2022-09-28T05:06:17.967Z,98381.28
2022-09-28T05:08:46.972Z,98377.00
2022-09-28T05:11:14.672Z,98383.47
2022-09-28T05:13:43.806Z,98381.56
2022-09-28T05:16:11.079Z,98384.56
2022-09-28T05:18:37.616Z,98389.94
2022-09-28T05:21:08.840Z,98386.75
2022-09-28T05:23:35.301Z,98377.91
2022-09-28T05:26:02.388Z,98379.00
2022-09-28T05:28:30.917Z,98383.66
2022-09-28T05:31:04.789Z,98376.13
2022-09-28T05:33:32.666Z,98386.53
2022-09-28T05:36:01.658Z,98378.56
2022-09-28T05:38:33.638Z,98374.09
2022-09-28T05:41:04.436Z,98381.19
2022-09-28T05:43:33.033Z,98377.22
2022-09-28T05:46:00.441Z,98373.66
2022-09-28T05:48:27.665Z,98377.00
2022-09-28T05:50:54.286Z,98374.69
2022-09-28T05:53:20.621Z,98379.28
2022-09-28T05:55:47.438Z,98378.28
2022-09-28T05:58:14.281Z,98378.88
2022-09-28T06:00:43.324Z,98380.75
2022-09-28T06:03:14.519Z,98379.72
2022-09-28T06:05:41.709Z,98378.72
2022-09-28T06:08:10.398Z,98375.25
2022-09-28T06:10:37.031Z,98373.66
2022-09-28T06:13:03.545Z,98373.94
2022-09-28T06:15:32.229Z,98377.69
2022-09-28T06:18:11.913Z,98378.25
2022-09-28T20:19:55.561Z,98919.63
2022-09-28T20:22:22.164Z,98917.44
2022-09-28T20:24:48.772Z,98919.88
2022-09-28T20:27:15.280Z,98924.72
2022-09-28T20:29:43.088Z,98920.66
2022-09-28T20:32:09.680Z,98919.03
2022-09-28T20:34:36.240Z,98928.22
2022-09-28T20:37:02.816Z,98921.22
2022-09-28T20:39:29.643Z,98927.38
2022-09-28T20:41:57.679Z,98932.50
2022-09-28T20:44:24.412Z,98935.47
2022-09-28T20:46:51.479Z,98930.41
2022-09-28T20:49:18.011Z,98934.41
2022-09-28T20:51:44.855Z,98927.09
2022-09-28T20:54:11.497Z,98934.66
2022-09-28T20:56:38.960Z,98932.53
2022-09-28T20:59:11.351Z,98933.59
2022-09-28T21:01:38.770Z,98937.38
2022-09-28T21:04:07.151Z,98939.50
2022-09-28T21:06:38.184Z,98945.47
2022-09-28T21:09:05.971Z,98940.06
2022-09-28T21:11:34.300Z,98942.75
2022-09-28T21:14:03.224Z,98943.31
2022-09-28T21:16:31.961Z,98938.72
2022-09-28T21:18:58.908Z,98947.88
2022-09-28T21:21:26.411Z,98941.19
2022-09-28T21:23:57.733Z,98947.91
2022-09-28T21:26:28.428Z,98952.50
2022-09-28T21:28:59.637Z,98948.97
2022-09-28T21:31:29.344Z,98944.94
2022-09-28T21:33:57.221Z,98950.84
2022-09-28T21:36:24.487Z,98951.41
2022-09-28T21:38:51.027Z,98961.09
2022-09-28T21:41:17.567Z,98961.63
2022-09-28T21:43:45.717Z,98960.03
2022-09-28T21:46:12.346Z,98961.06
2022-09-28T21:48:38.850Z,98958.41
2022-09-28T21:51:07.524Z,98966.47
2022-09-28T21:53:36.350Z,98958.38
2022-09-28T21:56:04.724Z,98966.44
2022-09-28T21:58:33.647Z,98968.59
2022-09-28T22:01:01.561Z,98969.66
2022-09-28T22:03:29.406Z,98968.59
2022-09-28T22:05:56.336Z,98972.34
2022-09-28T22:08:24.274Z,98971.81
2022-09-28T22:11:00.926Z,98967.53
2022-09-28T22:13:29.041Z,98969.13
2022-09-28T22:15:57.915Z,98970.47
2022-09-28T22:18:26.631Z,98965.34
2022-09-28T22:21:07.502Z,98970.75
2022-09-28T22:23:34.758Z,98971.81
2022-09-28T22:26:09.811Z,98965.91
2022-09-28T22:28:36.758Z,98968.06
2022-09-28T22:31:03.982Z,98972.66
2022-09-28T22:33:30.571Z,98969.69
2022-09-28T22:35:57.069Z,98969.94
2022-09-28T22:38:24.698Z,98977.22
2022-09-28T22:40:56.126Z,98976.72
2022-09-28T22:43:23.995Z,98980.19
2022-09-28T22:46:00.123Z,98981.53
2022-09-28T22:48:26.846Z,98973.72
2022-09-28T22:50:53.266Z,98975.09
2022-09-28T22:53:19.820Z,98982.06
2022-09-28T22:55:46.532Z,98980.97
2022-09-28T22:58:13.578Z,98980.22
2022-09-28T23:00:40.443Z,98974.50
2022-09-28T23:03:07.122Z,98975.00
2022-09-28T23:05:33.559Z,98984.75
2022-09-28T23:08:00.326Z,98972.84
2022-09-28T23:10:27.035Z,98972.56
2022-09-28T23:12:53.795Z,98979.63
2022-09-28T23:15:21.628Z,98970.44
2022-09-28T23:17:52.588Z,98976.09
2022-09-28T23:20:20.191Z,98973.38
2022-09-28T23:22:48.062Z,98973.91
2022-09-28T23:25:15.870Z,98979.88
2022-09-28T23:27:49.799Z,98978.78
2022-09-28T23:30:18.544Z,98977.69
2022-09-28T23:32:45.118Z,98978.25
2022-09-28T23:35:12.923Z,98977.16
2022-09-28T23:37:39.364Z,98972.84
2022-09-28T23:40:07.116Z,98983.09
2022-09-28T23:42:34.943Z,98969.09
2022-09-28T23:45:01.756Z,98970.97
2022-09-28T23:47:28.266Z,98969.38
2022-09-28T23:49:54.731Z,98974.47
2022-09-28T23:52:21.155Z,98981.50
2022-09-28T23:54:47.608Z,98975.56
2022-09-28T23:57:14.039Z,98981.75
2022-09-28T23:59:40.493Z,98984.75
